sensor_id;sensor_type;location;lat;lon;timestamp;P1;durP1;ratioP1;P2;durP2;ratioP2
63050;SDS011;49136;47.416;19.402;2023-03-01T00:01:21;18.88;;;6.10;;
63050;SDS011;49136;47.416;19.402;2023-03-01T00:03:49;15.85;;;6.10;;
63050;SDS011;49136;47.416;19.402;2023-03-01T00:06:15;28.10;;;8.50;;
63050;SDS011;49136;47.416;19.402;2023-03-01T00:08:41;20.40;;;8.02;;
63050;SDS011;49136;47.416;19.402;2023-03-01T00:11:17;20.15;;;7.93;;
63050;SDS011;49136;47.416;19.402;2023-03-01T00:13:45;31.05;;;8.82;;
63050;SDS011;49136;47.416;19.402;2023-03-01T00:16:14;19.08;;;8.18;;
63050;SDS011;49136;47.416;19.402;2023-03-01T00:18:42;32.47;;;9.57;;
63050;SDS011;49136;47.416;19.402;2023-03-01T00:21:08;30.75;;;7.20;;
63050;SDS011;49136;47.416;19.402;2023-03-01T00:23:34;25.48;;;9.57;;
63050;SDS011;49136;47.416;19.402;2023-03-01T00:26:01;24.55;;;9.18;;
63050;SDS011;49136;47.416;19.402;2023-03-01T00:28:27;23.95;;;8.50;;
63050;SDS011;49136;47.416;19.402;2023-03-01T00:30:52;28.05;;;9.32;;
63050;SDS011;49136;47.416;19.402;2023-03-01T00:33:18;33.35;;;9.00;;
63050;SDS011;49136;47.416;19.402;2023-03-01T00:35:43;25.35;;;9.68;;
63050;SDS011;49136;47.416;19.402;2023-03-01T00:38:09;27.20;;;9.40;;
63050;SDS011;49136;47.416;19.402;2023-03-01T00:40:35;19.05;;;7.55;;
63050;SDS011;49136;47.416;19.402;2023-03-01T00:43:01;20.67;;;7.38;;
63050;SDS011;49136;47.416;19.402;2023-03-01T00:45:26;35.38;;;9.95;;
63050;SDS011;49136;47.416;19.402;2023-03-01T00:47:52;26.05;;;9.68;;
63050;SDS011;49136;47.416;19.402;2023-03-01T00:50:18;34.53;;;12.23;;
63050;SDS011;49136;47.416;19.402;2023-03-01T00:52:44;29.33;;;10.25;;
63050;SDS011;49136;47.416;19.402;2023-03-01T00:55:09;26.80;;;11.98;;
63050;SDS011;49136;47.416;19.402;2023-03-01T00:57:36;32.92;;;11.93;;
63050;SDS011;49136;47.416;19.402;2023-03-01T01:00:02;26.92;;;10.90;;
63050;SDS011;49136;47.416;19.402;2023-03-01T01:02:29;29.83;;;11.82;;
63050;SDS011;49136;47.416;19.402;2023-03-01T01:04:54;41.92;;;11.30;;
63050;SDS011;49136;47.416;19.402;2023-03-01T01:07:20;38.95;;;12.55;;
63050;SDS011;49136;47.416;19.402;2023-03-01T01:09:45;33.95;;;11.40;;
63050;SDS011;49136;47.416;19.402;2023-03-01T01:12:11;41.63;;;12.55;;
63050;SDS011;49136;47.416;19.402;2023-03-01T01:14:37;36.30;;;11.68;;
63050;SDS011;49136;47.416;19.402;2023-03-01T01:17:02;37.35;;;12.05;;
63050;SDS011;49136;47.416;19.402;2023-03-01T01:19:28;31.92;;;10.65;;
63050;SDS011;49136;47.416;19.402;2023-03-01T01:21:54;38.17;;;12.88;;
63050;SDS011;49136;47.416;19.402;2023-03-01T01:24:19;27.33;;;8.43;;
63050;SDS011;49136;47.416;19.402;2023-03-01T01:26:45;25.30;;;9.05;;
63050;SDS011;49136;47.416;19.402;2023-03-01T01:29:11;26.45;;;10.27;;
63050;SDS011;49136;47.416;19.402;2023-03-01T01:31:37;30.75;;;10.13;;
63050;SDS011;49136;47.416;19.402;2023-03-01T01:34:04;36.75;;;9.70;;
63050;SDS011;49136;47.416;19.402;2023-03-01T01:36:32;26.10;;;9.27;;
63050;SDS011;49136;47.416;19.402;2023-03-01T01:38:59;25.75;;;10.57;;
63050;SDS011;49136;47.416;19.402;2023-03-01T01:41:25;17.98;;;7.65;;
63050;SDS011;49136;47.416;19.402;2023-03-01T01:47:07;26.25;;;8.80;;
63050;SDS011;49136;47.416;19.402;2023-03-01T01:52:36;25.92;;;10.32;;
63050;SDS011;49136;47.416;19.402;2023-03-01T01:55:04;26.42;;;9.65;;
63050;SDS011;49136;47.416;19.402;2023-03-01T01:57:43;26.08;;;8.95;;
63050;SDS011;49136;47.416;19.402;2023-03-01T02:00:12;25.58;;;8.45;;
63050;SDS011;49136;47.416;19.402;2023-03-01T02:02:40;28.75;;;10.05;;
63050;SDS011;49136;47.416;19.402;2023-03-01T02:05:12;30.77;;;11.73;;
63050;SDS011;49136;47.416;19.402;2023-03-01T02:07:39;35.08;;;9.57;;
63050;SDS011;49136;47.416;19.402;2023-03-01T02:10:06;28.90;;;9.63;;
63050;SDS011;49136;47.416;19.402;2023-03-01T02:12:32;27.95;;;10.48;;
63050;SDS011;49136;47.416;19.402;2023-03-01T02:14:59;19.02;;;7.85;;
63050;SDS011;49136;47.416;19.402;2023-03-01T02:17:24;15.35;;;7.50;;
63050;SDS011;49136;47.416;19.402;2023-03-01T02:22:37;33.50;;;10.52;;
63050;SDS011;49136;47.416;19.402;2023-03-01T02:30:19;23.40;;;8.52;;
63050;SDS011;49136;47.416;19.402;2023-03-01T02:32:46;18.85;;;8.73;;
63050;SDS011;49136;47.416;19.402;2023-03-01T02:35:13;18.70;;;8.18;;
63050;SDS011;49136;47.416;19.402;2023-03-01T02:37:41;21.13;;;8.05;;
63050;SDS011;49136;47.416;19.402;2023-03-01T02:40:08;26.17;;;9.52;;
63050;SDS011;49136;47.416;19.402;2023-03-01T02:42:47;31.65;;;9.48;;
63050;SDS011;49136;47.416;19.402;2023-03-01T02:45:17;25.67;;;9.57;;
63050;SDS011;49136;47.416;19.402;2023-03-01T02:47:43;20.63;;;7.50;;
63050;SDS011;49136;47.416;19.402;2023-03-01T02:53:04;20.80;;;6.90;;
63050;SDS011;49136;47.416;19.402;2023-03-01T02:55:36;15.73;;;7.10;;
63050;SDS011;49136;47.416;19.402;2023-03-01T02:58:02;18.85;;;6.25;;
63050;SDS011;49136;47.416;19.402;2023-03-01T03:00:30;20.50;;;8.55;;
63050;SDS011;49136;47.416;19.402;2023-03-01T03:03:04;29.00;;;9.27;;
63050;SDS011;49136;47.416;19.402;2023-03-01T03:05:31;25.08;;;9.50;;
63050;SDS011;49136;47.416;19.402;2023-03-01T03:07:57;17.50;;;7.25;;
63050;SDS011;49136;47.416;19.402;2023-03-01T03:10:25;27.80;;;8.65;;
63050;SDS011;49136;47.416;19.402;2023-03-01T03:12:56;25.40;;;9.10;;
63050;SDS011;49136;47.416;19.402;2023-03-01T03:15:23;20.02;;;9.45;;
63050;SDS011;49136;47.416;19.402;2023-03-01T03:17:49;30.92;;;11.57;;
63050;SDS011;49136;47.416;19.402;2023-03-01T03:20:17;31.25;;;8.70;;
63050;SDS011;49136;47.416;19.402;2023-03-01T03:22:45;23.70;;;8.35;;
63050;SDS011;49136;47.416;19.402;2023-03-01T03:25:11;30.15;;;10.98;;
63050;SDS011;49136;47.416;19.402;2023-03-01T03:27:37;19.35;;;8.50;;
63050;SDS011;49136;47.416;19.402;2023-03-01T03:30:04;31.65;;;8.30;;
63050;SDS011;49136;47.416;19.402;2023-03-01T03:32:37;32.88;;;9.68;;
63050;SDS011;49136;47.416;19.402;2023-03-01T03:35:06;35.78;;;9.00;;
63050;SDS011;49136;47.416;19.402;2023-03-01T03:37:37;29.48;;;10.65;;
63050;SDS011;49136;47.416;19.402;2023-03-01T03:40:24;32.22;;;12.95;;
63050;SDS011;49136;47.416;19.402;2023-03-01T03:42:50;35.78;;;11.32;;
63050;SDS011;49136;47.416;19.402;2023-03-01T03:45:16;33.80;;;9.63;;
63050;SDS011;49136;47.416;19.402;2023-03-01T03:47:42;37.03;;;10.43;;
63050;SDS011;49136;47.416;19.402;2023-03-01T03:50:09;25.38;;;8.13;;
63050;SDS011;49136;47.416;19.402;2023-03-01T03:52:35;29.63;;;9.95;;
63050;SDS011;49136;47.416;19.402;2023-03-01T03:55:01;37.15;;;7.88;;
63050;SDS011;49136;47.416;19.402;2023-03-01T03:57:27;18.42;;;7.20;;
63050;SDS011;49136;47.416;19.402;2023-03-01T03:59:52;19.15;;;8.43;;
63050;SDS011;49136;47.416;19.402;2023-03-01T04:02:17;25.70;;;8.32;;
63050;SDS011;49136;47.416;19.402;2023-03-01T04:04:47;28.25;;;10.07;;
63050;SDS011;49136;47.416;19.402;2023-03-01T04:07:15;21.85;;;9.10;;
63050;SDS011;49136;47.416;19.402;2023-03-01T04:09:41;17.67;;;6.30;;
63050;SDS011;49136;47.416;19.402;2023-03-01T04:12:07;15.40;;;6.45;;
63050;SDS011;49136;47.416;19.402;2023-03-01T04:14:33;28.98;;;7.78;;
63050;SDS011;49136;47.416;19.402;2023-03-01T04:16:59;15.98;;;6.18;;
63050;SDS011;49136;47.416;19.402;2023-03-01T04:19:24;21.98;;;7.82;;
63050;SDS011;49136;47.416;19.402;2023-03-01T04:21:49;20.50;;;9.23;;
63050;SDS011;49136;47.416;19.402;2023-03-01T04:24:15;21.35;;;9.82;;
63050;SDS011;49136;47.416;19.402;2023-03-01T04:26:41;19.55;;;8.18;;
63050;SDS011;49136;47.416;19.402;2023-03-01T04:29:06;18.13;;;6.35;;
63050;SDS011;49136;47.416;19.402;2023-03-01T04:31:32;23.10;;;7.93;;
63050;SDS011;49136;47.416;19.402;2023-03-01T04:33:57;17.38;;;7.47;;
63050;SDS011;49136;47.416;19.402;2023-03-01T04:36:24;17.10;;;6.22;;
63050;SDS011;49136;47.416;19.402;2023-03-01T04:38:51;14.95;;;5.93;;
63050;SDS011;49136;47.416;19.402;2023-03-01T04:41:18;12.45;;;5.85;;
63050;SDS011;49136;47.416;19.402;2023-03-01T04:43:45;13.65;;;6.45;;
63050;SDS011;49136;47.416;19.402;2023-03-01T04:46:12;19.95;;;5.85;;
63050;SDS011;49136;47.416;19.402;2023-03-01T04:48:40;18.00;;;6.47;;
63050;SDS011;49136;47.416;19.402;2023-03-01T04:51:08;18.95;;;6.28;;
63050;SDS011;49136;47.416;19.402;2023-03-01T04:53:34;14.38;;;7.45;;
63050;SDS011;49136;47.416;19.402;2023-03-01T04:56:01;10.77;;;4.68;;
63050;SDS011;49136;47.416;19.402;2023-03-01T04:58:27;19.40;;;7.50;;
63050;SDS011;49136;47.416;19.402;2023-03-01T05:00:54;15.32;;;5.55;;
63050;SDS011;49136;47.416;19.402;2023-03-01T05:03:20;14.82;;;7.15;;
63050;SDS011;49136;47.416;19.402;2023-03-01T05:05:46;13.00;;;5.43;;
63050;SDS011;49136;47.416;19.402;2023-03-01T05:08:14;13.85;;;7.00;;
63050;SDS011;49136;47.416;19.402;2023-03-01T05:10:44;14.23;;;5.60;;
63050;SDS011;49136;47.416;19.402;2023-03-01T05:13:11;19.65;;;7.03;;
63050;SDS011;49136;47.416;19.402;2023-03-01T05:15:38;16.40;;;5.18;;
63050;SDS011;49136;47.416;19.402;2023-03-01T05:18:04;13.30;;;5.40;;
63050;SDS011;49136;47.416;19.402;2023-03-01T05:23:01;13.73;;;4.72;;
63050;SDS011;49136;47.416;19.402;2023-03-01T05:25:30;19.30;;;4.78;;
63050;SDS011;49136;47.416;19.402;2023-03-01T05:27:58;13.88;;;5.20;;
63050;SDS011;49136;47.416;19.402;2023-03-01T05:30:24;13.70;;;5.25;;
63050;SDS011;49136;47.416;19.402;2023-03-01T05:32:50;12.77;;;5.32;;
63050;SDS011;49136;47.416;19.402;2023-03-01T05:35:20;17.80;;;6.35;;
63050;SDS011;49136;47.416;19.402;2023-03-01T05:37:47;35.00;;;12.75;;
63050;SDS011;49136;47.416;19.402;2023-03-01T05:40:14;13.65;;;6.38;;
63050;SDS011;49136;47.416;19.402;2023-03-01T05:42:47;9.55;;;5.03;;
63050;SDS011;49136;47.416;19.402;2023-03-01T05:45:15;16.00;;;5.68;;
63050;SDS011;49136;47.416;19.402;2023-03-01T05:47:42;16.35;;;6.95;;
63050;SDS011;49136;47.416;19.402;2023-03-01T05:50:13;15.50;;;5.45;;
63050;SDS011;49136;47.416;19.402;2023-03-01T05:52:39;13.95;;;5.97;;
63050;SDS011;49136;47.416;19.402;2023-03-01T05:55:05;9.45;;;4.07;;
63050;SDS011;49136;47.416;19.402;2023-03-01T05:57:31;10.15;;;6.13;;
63050;SDS011;49136;47.416;19.402;2023-03-01T05:59:56;12.65;;;6.32;;
63050;SDS011;49136;47.416;19.402;2023-03-01T06:02:21;17.40;;;5.25;;
63050;SDS011;49136;47.416;19.402;2023-03-01T06:04:47;16.35;;;5.72;;
63050;SDS011;49136;47.416;19.402;2023-03-01T06:07:12;14.77;;;5.38;;
63050;SDS011;49136;47.416;19.402;2023-03-01T06:09:38;15.70;;;6.38;;
63050;SDS011;49136;47.416;19.402;2023-03-01T06:12:03;27.52;;;7.95;;
63050;SDS011;49136;47.416;19.402;2023-03-01T06:14:29;12.63;;;5.60;;
63050;SDS011;49136;47.416;19.402;2023-03-01T06:16:55;13.27;;;7.28;;
63050;SDS011;49136;47.416;19.402;2023-03-01T06:19:20;13.32;;;5.85;;
63050;SDS011;49136;47.416;19.402;2023-03-01T06:21:46;14.57;;;6.50;;
63050;SDS011;49136;47.416;19.402;2023-03-01T06:24:11;10.48;;;5.18;;
63050;SDS011;49136;47.416;19.402;2023-03-01T06:26:37;17.17;;;7.25;;
63050;SDS011;49136;47.416;19.402;2023-03-01T06:29:02;12.80;;;6.47;;
63050;SDS011;49136;47.416;19.402;2023-03-01T06:31:27;7.20;;;3.92;;
63050;SDS011;49136;47.416;19.402;2023-03-01T06:33:53;22.60;;;5.53;;
63050;SDS011;49136;47.416;19.402;2023-03-01T06:36:19;15.05;;;6.38;;
63050;SDS011;49136;47.416;19.402;2023-03-01T06:38:46;19.00;;;6.63;;
63050;SDS011;49136;47.416;19.402;2023-03-01T06:41:11;12.10;;;6.18;;
63050;SDS011;49136;47.416;19.402;2023-03-01T06:43:37;21.35;;;8.00;;
63050;SDS011;49136;47.416;19.402;2023-03-01T06:46:05;17.13;;;8.05;;
63050;SDS011;49136;47.416;19.402;2023-03-01T06:48:32;16.70;;;7.50;;
63050;SDS011;49136;47.416;19.402;2023-03-01T06:50:59;11.70;;;6.00;;
63050;SDS011;49136;47.416;19.402;2023-03-01T06:53:28;20.00;;;7.15;;
63050;SDS011;49136;47.416;19.402;2023-03-01T06:55:54;18.30;;;6.28;;
63050;SDS011;49136;47.416;19.402;2023-03-01T06:58:21;13.85;;;4.72;;
63050;SDS011;49136;47.416;19.402;2023-03-01T07:00:46;16.48;;;7.80;;
63050;SDS011;49136;47.416;19.402;2023-03-01T07:03:12;10.45;;;6.18;;
63050;SDS011;49136;47.416;19.402;2023-03-01T07:05:37;14.43;;;6.07;;
63050;SDS011;49136;47.416;19.402;2023-03-01T07:08:02;13.80;;;6.93;;
63050;SDS011;49136;47.416;19.402;2023-03-01T07:10:28;19.40;;;8.32;;
63050;SDS011;49136;47.416;19.402;2023-03-01T07:12:54;13.77;;;5.88;;
63050;SDS011;49136;47.416;19.402;2023-03-01T07:15:20;11.93;;;5.88;;
63050;SDS011;49136;47.416;19.402;2023-03-01T07:17:46;15.25;;;6.32;;
63050;SDS011;49136;47.416;19.402;2023-03-01T07:20:14;18.30;;;5.47;;
63050;SDS011;49136;47.416;19.402;2023-03-01T07:22:40;19.77;;;9.10;;
63050;SDS011;49136;47.416;19.402;2023-03-01T07:25:07;16.13;;;6.18;;
63050;SDS011;49136;47.416;19.402;2023-03-01T07:27:33;10.48;;;5.00;;
63050;SDS011;49136;47.416;19.402;2023-03-01T07:29:58;11.02;;;5.82;;
63050;SDS011;49136;47.416;19.402;2023-03-01T07:32:24;14.90;;;6.85;;
63050;SDS011;49136;47.416;19.402;2023-03-01T07:34:50;10.57;;;5.35;;
63050;SDS011;49136;47.416;19.402;2023-03-01T07:37:16;12.02;;;6.00;;
63050;SDS011;49136;47.416;19.402;2023-03-01T07:39:41;20.88;;;8.00;;
63050;SDS011;49136;47.416;19.402;2023-03-01T07:42:07;15.85;;;6.15;;
63050;SDS011;49136;47.416;19.402;2023-03-01T07:44:33;15.02;;;6.30;;
63050;SDS011;49136;47.416;19.402;2023-03-01T07:46:59;13.30;;;5.38;;
63050;SDS011;49136;47.416;19.402;2023-03-01T07:49:25;9.18;;;5.00;;
63050;SDS011;49136;47.416;19.402;2023-03-01T07:51:53;10.98;;;5.35;;
63050;SDS011;49136;47.416;19.402;2023-03-01T07:54:19;12.77;;;5.57;;
63050;SDS011;49136;47.416;19.402;2023-03-01T07:56:44;16.08;;;5.72;;
63050;SDS011;49136;47.416;19.402;2023-03-01T07:59:10;12.43;;;6.05;;
63050;SDS011;49136;47.416;19.402;2023-03-01T08:01:35;12.25;;;5.38;;
63050;SDS011;49136;47.416;19.402;2023-03-01T08:04:01;21.65;;;8.35;;
63050;SDS011;49136;47.416;19.402;2023-03-01T08:06:26;11.38;;;5.95;;
63050;SDS011;49136;47.416;19.402;2023-03-01T08:08:52;16.42;;;6.10;;
63050;SDS011;49136;47.416;19.402;2023-03-01T08:11:20;12.95;;;6.00;;
63050;SDS011;49136;47.416;19.402;2023-03-01T08:13:47;15.25;;;5.40;;
63050;SDS011;49136;47.416;19.402;2023-03-01T08:16:13;17.38;;;7.20;;
63050;SDS011;49136;47.416;19.402;2023-03-01T08:18:40;12.52;;;6.07;;
63050;SDS011;49136;47.416;19.402;2023-03-01T08:21:07;12.75;;;6.28;;
63050;SDS011;49136;47.416;19.402;2023-03-01T08:23:34;21.10;;;6.72;;
63050;SDS011;49136;47.416;19.402;2023-03-01T08:26:10;17.67;;;6.60;;
63050;SDS011;49136;47.416;19.402;2023-03-01T08:28:40;16.50;;;6.35;;
63050;SDS011;49136;47.416;19.402;2023-03-01T08:31:16;14.63;;;7.25;;
63050;SDS011;49136;47.416;19.402;2023-03-01T08:33:50;7.15;;;4.65;;
63050;SDS011;49136;47.416;19.402;2023-03-01T08:36:20;7.50;;;4.27;;
63050;SDS011;49136;47.416;19.402;2023-03-01T08:38:47;10.85;;;5.50;;
63050;SDS011;49136;47.416;19.402;2023-03-01T08:41:13;10.35;;;4.32;;
63050;SDS011;49136;47.416;19.402;2023-03-01T08:43:39;16.48;;;6.50;;
63050;SDS011;49136;47.416;19.402;2023-03-01T08:46:04;10.60;;;3.85;;
63050;SDS011;49136;47.416;19.402;2023-03-01T08:48:30;15.68;;;6.57;;
63050;SDS011;49136;47.416;19.402;2023-03-01T08:50:56;10.13;;;4.30;;
63050;SDS011;49136;47.416;19.402;2023-03-01T08:53:21;15.75;;;7.10;;
63050;SDS011;49136;47.416;19.402;2023-03-01T08:55:47;24.08;;;11.00;;
63050;SDS011;49136;47.416;19.402;2023-03-01T08:58:12;13.60;;;4.60;;
63050;SDS011;49136;47.416;19.402;2023-03-01T09:00:38;10.35;;;4.85;;
63050;SDS011;49136;47.416;19.402;2023-03-01T09:03:05;11.60;;;5.70;;
63050;SDS011;49136;47.416;19.402;2023-03-01T09:05:31;15.82;;;6.55;;
63050;SDS011;49136;47.416;19.402;2023-03-01T09:07:57;10.25;;;5.63;;
63050;SDS011;49136;47.416;19.402;2023-03-01T09:10:23;8.10;;;4.50;;
63050;SDS011;49136;47.416;19.402;2023-03-01T09:12:49;17.80;;;5.65;;
63050;SDS011;49136;47.416;19.402;2023-03-01T09:15:14;9.93;;;4.00;;
63050;SDS011;49136;47.416;19.402;2023-03-01T09:17:40;11.00;;;4.88;;
63050;SDS011;49136;47.416;19.402;2023-03-01T09:20:05;11.98;;;5.15;;
63050;SDS011;49136;47.416;19.402;2023-03-01T09:22:33;13.50;;;4.68;;
63050;SDS011;49136;47.416;19.402;2023-03-01T09:24:59;12.70;;;4.25;;
63050;SDS011;49136;47.416;19.402;2023-03-01T09:27:26;9.27;;;4.40;;
63050;SDS011;49136;47.416;19.402;2023-03-01T09:29:51;9.32;;;4.60;;
63050;SDS011;49136;47.416;19.402;2023-03-01T09:32:17;20.33;;;5.80;;
63050;SDS011;49136;47.416;19.402;2023-03-01T09:34:42;10.70;;;5.00;;
63050;SDS011;49136;47.416;19.402;2023-03-01T09:37:28;27.20;;;5.35;;
63050;SDS011;49136;47.416;19.402;2023-03-01T09:39:54;13.95;;;5.07;;
63050;SDS011;49136;47.416;19.402;2023-03-01T09:42:19;11.32;;;4.82;;
63050;SDS011;49136;47.416;19.402;2023-03-01T09:44:54;16.83;;;7.28;;
63050;SDS011;49136;47.416;19.402;2023-03-01T09:47:29;8.82;;;4.60;;
63050;SDS011;49136;47.416;19.402;2023-03-01T09:50:02;12.23;;;6.13;;
63050;SDS011;49136;47.416;19.402;2023-03-01T09:55:04;21.70;;;5.38;;
63050;SDS011;49136;47.416;19.402;2023-03-01T10:00:44;12.25;;;5.35;;
63050;SDS011;49136;47.416;19.402;2023-03-01T10:03:11;11.27;;;5.75;;
63050;SDS011;49136;47.416;19.402;2023-03-01T10:05:52;8.63;;;5.18;;
63050;SDS011;49136;47.416;19.402;2023-03-01T10:11:13;8.43;;;3.88;;
63050;SDS011;49136;47.416;19.402;2023-03-01T10:14:09;7.80;;;2.92;;
63050;SDS011;49136;47.416;19.402;2023-03-01T10:20:05;11.85;;;4.47;;
63050;SDS011;49136;47.416;19.402;2023-03-01T10:22:29;12.43;;;4.93;;
63050;SDS011;49136;47.416;19.402;2023-03-01T10:24:57;24.08;;;10.52;;
63050;SDS011;49136;47.416;19.402;2023-03-01T10:27:35;7.80;;;4.38;;
63050;SDS011;49136;47.416;19.402;2023-03-01T10:30:17;9.32;;;4.70;;
63050;SDS011;49136;47.416;19.402;2023-03-01T10:32:44;7.68;;;3.95;;
63050;SDS011;49136;47.416;19.402;2023-03-01T10:40:31;6.70;;;3.80;;
63050;SDS011;49136;47.416;19.402;2023-03-01T10:42:59;8.35;;;3.50;;
63050;SDS011;49136;47.416;19.402;2023-03-01T10:45:32;7.03;;;3.60;;
63050;SDS011;49136;47.416;19.402;2023-03-01T10:51:06;9.80;;;3.75;;
63050;SDS011;49136;47.416;19.402;2023-03-01T10:53:38;7.93;;;3.65;;
63050;SDS011;49136;47.416;19.402;2023-03-01T10:56:10;8.18;;;4.10;;
63050;SDS011;49136;47.416;19.402;2023-03-01T10:59:03;14.80;;;3.90;;
63050;SDS011;49136;47.416;19.402;2023-03-01T11:01:29;9.85;;;4.82;;
63050;SDS011;49136;47.416;19.402;2023-03-01T11:06:32;12.25;;;5.38;;
63050;SDS011;49136;47.416;19.402;2023-03-01T11:09:13;16.25;;;4.32;;
63050;SDS011;49136;47.416;19.402;2023-03-01T11:11:45;7.55;;;4.13;;
63050;SDS011;49136;47.416;19.402;2023-03-01T11:16:48;6.05;;;3.33;;
63050;SDS011;49136;47.416;19.402;2023-03-01T11:19:23;6.80;;;3.58;;
63050;SDS011;49136;47.416;19.402;2023-03-01T11:22:03;12.75;;;4.80;;
63050;SDS011;49136;47.416;19.402;2023-03-01T11:24:47;11.65;;;3.88;;
63050;SDS011;49136;47.416;19.402;2023-03-01T11:27:22;6.10;;;3.85;;
63050;SDS011;49136;47.416;19.402;2023-03-01T11:32:57;10.65;;;4.35;;
63050;SDS011;49136;47.416;19.402;2023-03-01T11:35:30;10.70;;;3.70;;
63050;SDS011;49136;47.416;19.402;2023-03-01T11:40:34;11.40;;;4.47;;
63050;SDS011;49136;47.416;19.402;2023-03-01T11:45:55;11.25;;;5.00;;
63050;SDS011;49136;47.416;19.402;2023-03-01T11:48:50;8.68;;;3.42;;
63050;SDS011;49136;47.416;19.402;2023-03-01T11:51:27;7.25;;;3.80;;
63050;SDS011;49136;47.416;19.402;2023-03-01T11:54:13;11.05;;;4.55;;
63050;SDS011;49136;47.416;19.402;2023-03-01T11:59:59;4.93;;;3.03;;
63050;SDS011;49136;47.416;19.402;2023-03-01T12:02:56;10.43;;;4.07;;
63050;SDS011;49136;47.416;19.402;2023-03-01T12:13:41;9.25;;;3.58;;
63050;SDS011;49136;47.416;19.402;2023-03-01T12:22:08;10.35;;;3.50;;
63050;SDS011;49136;47.416;19.402;2023-03-01T12:28:02;11.27;;;4.72;;
63050;SDS011;49136;47.416;19.402;2023-03-01T12:33:50;8.82;;;3.83;;
63050;SDS011;49136;47.416;19.402;2023-03-01T12:50:13;11.87;;;4.63;;
63050;SDS011;49136;47.416;19.402;2023-03-01T12:55:39;9.27;;;4.88;;
63050;SDS011;49136;47.416;19.402;2023-03-01T12:58:26;12.98;;;5.82;;
63050;SDS011;49136;47.416;19.402;2023-03-01T13:11:48;10.05;;;4.35;;
63050;SDS011;49136;47.416;19.402;2023-03-01T13:16:49;8.25;;;3.88;;
63050;SDS011;49136;47.416;19.402;2023-03-01T13:19:19;9.68;;;4.28;;
63050;SDS011;49136;47.416;19.402;2023-03-01T13:21:55;7.63;;;3.72;;
63050;SDS011;49136;47.416;19.402;2023-03-01T13:32:24;12.15;;;3.92;;
63050;SDS011;49136;47.416;19.402;2023-03-01T13:37:42;18.90;;;6.18;;
63050;SDS011;49136;47.416;19.402;2023-03-01T13:42:54;11.60;;;3.22;;
63050;SDS011;49136;47.416;19.402;2023-03-01T13:48:09;6.47;;;2.50;;
63050;SDS011;49136;47.416;19.402;2023-03-01T13:50:48;9.82;;;4.15;;
63050;SDS011;49136;47.416;19.402;2023-03-01T13:53:20;12.15;;;3.88;;
63050;SDS011;49136;47.416;19.402;2023-03-01T13:55:55;9.32;;;3.72;;
63050;SDS011;49136;47.416;19.402;2023-03-01T13:58:26;20.63;;;5.47;;
63050;SDS011;49136;47.416;19.402;2023-03-01T14:01:04;17.10;;;6.22;;
63050;SDS011;49136;47.416;19.402;2023-03-01T14:03:32;6.47;;;3.13;;
63050;SDS011;49136;47.416;19.402;2023-03-01T14:06:06;8.30;;;3.20;;
63050;SDS011;49136;47.416;19.402;2023-03-01T14:08:33;18.45;;;6.43;;
63050;SDS011;49136;47.416;19.402;2023-03-01T14:19:38;13.57;;;4.40;;
63050;SDS011;49136;47.416;19.402;2023-03-01T14:24:38;21.38;;;3.20;;
63050;SDS011;49136;47.416;19.402;2023-03-01T14:29:38;10.60;;;4.05;;
63050;SDS011;49136;47.416;19.402;2023-03-01T14:32:08;6.93;;;2.58;;
63050;SDS011;49136;47.416;19.402;2023-03-01T14:34:45;7.85;;;2.70;;
63050;SDS011;49136;47.416;19.402;2023-03-01T14:39:55;18.55;;;5.07;;
63050;SDS011;49136;47.416;19.402;2023-03-01T14:42:22;6.20;;;2.60;;
63050;SDS011;49136;47.416;19.402;2023-03-01T14:44:51;17.27;;;3.58;;
63050;SDS011;49136;47.416;19.402;2023-03-01T14:47:34;6.75;;;2.85;;
63050;SDS011;49136;47.416;19.402;2023-03-01T14:50:08;13.60;;;3.40;;
63050;SDS011;49136;47.416;19.402;2023-03-01T14:52:41;15.18;;;3.78;;
63050;SDS011;49136;47.416;19.402;2023-03-01T14:55:31;13.27;;;5.22;;
63050;SDS011;49136;47.416;19.402;2023-03-01T14:57:56;5.07;;;2.97;;
63050;SDS011;49136;47.416;19.402;2023-03-01T15:00:29;7.88;;;3.15;;
63050;SDS011;49136;47.416;19.402;2023-03-01T15:03:07;6.82;;;3.15;;
63050;SDS011;49136;47.416;19.402;2023-03-01T15:05:38;2.15;;;1.63;;
63050;SDS011;49136;47.416;19.402;2023-03-01T15:08:05;4.82;;;1.80;;
63050;SDS011;49136;47.416;19.402;2023-03-01T15:10:33;7.68;;;2.92;;
63050;SDS011;49136;47.416;19.402;2023-03-01T15:13:13;5.35;;;2.67;;
63050;SDS011;49136;47.416;19.402;2023-03-01T15:15:50;15.70;;;5.28;;
63050;SDS011;49136;47.416;19.402;2023-03-01T15:18:19;14.68;;;3.40;;
63050;SDS011;49136;47.416;19.402;2023-03-01T15:20:48;7.55;;;2.85;;
63050;SDS011;49136;47.416;19.402;2023-03-01T15:25:51;9.18;;;4.30;;
63050;SDS011;49136;47.416;19.402;2023-03-01T15:28:30;12.68;;;4.72;;
63050;SDS011;49136;47.416;19.402;2023-03-01T15:31:00;13.20;;;4.10;;
63050;SDS011;49136;47.416;19.402;2023-03-01T15:33:30;14.82;;;5.82;;
63050;SDS011;49136;47.416;19.402;2023-03-01T15:38:57;9.02;;;3.33;;
63050;SDS011;49136;47.416;19.402;2023-03-01T15:44:13;16.35;;;4.47;;
63050;SDS011;49136;47.416;19.402;2023-03-01T15:46:44;6.95;;;3.22;;
63050;SDS011;49136;47.416;19.402;2023-03-01T15:49:35;14.20;;;5.73;;
63050;SDS011;49136;47.416;19.402;2023-03-01T15:52:05;9.65;;;4.07;;
63050;SDS011;49136;47.416;19.402;2023-03-01T15:54:36;13.48;;;3.53;;
63050;SDS011;49136;47.416;19.402;2023-03-01T15:57:08;9.70;;;4.05;;
63050;SDS011;49136;47.416;19.402;2023-03-01T16:02:07;12.93;;;3.88;;
63050;SDS011;49136;47.416;19.402;2023-03-01T16:06:59;25.38;;;6.28;;
63050;SDS011;49136;47.416;19.402;2023-03-01T16:09:26;16.27;;;5.45;;
63050;SDS011;49136;47.416;19.402;2023-03-01T16:11:52;16.60;;;4.90;;
63050;SDS011;49136;47.416;19.402;2023-03-01T16:14:18;9.48;;;3.60;;
63050;SDS011;49136;47.416;19.402;2023-03-01T16:16:45;14.10;;;5.18;;
63050;SDS011;49136;47.416;19.402;2023-03-01T16:19:13;26.48;;;10.40;;
63050;SDS011;49136;47.416;19.402;2023-03-01T16:21:38;25.75;;;11.35;;
63050;SDS011;49136;47.416;19.402;2023-03-01T16:24:04;27.50;;;10.68;;
63050;SDS011;49136;47.416;19.402;2023-03-01T16:26:31;23.70;;;10.50;;
63050;SDS011;49136;47.416;19.402;2023-03-01T16:28:57;30.10;;;10.00;;
63050;SDS011;49136;47.416;19.402;2023-03-01T16:31:23;32.78;;;11.20;;
63050;SDS011;49136;47.416;19.402;2023-03-01T16:33:55;56.67;;;17.45;;
63050;SDS011;49136;47.416;19.402;2023-03-01T16:36:22;47.40;;;12.73;;
63050;SDS011;49136;47.416;19.402;2023-03-01T16:38:50;30.85;;;11.07;;
63050;SDS011;49136;47.416;19.402;2023-03-01T16:41:18;22.00;;;9.52;;
63050;SDS011;49136;47.416;19.402;2023-03-01T16:43:45;20.23;;;7.82;;
63050;SDS011;49136;47.416;19.402;2023-03-01T16:46:22;22.50;;;7.97;;
63050;SDS011;49136;47.416;19.402;2023-03-01T16:48:53;18.50;;;5.47;;
63050;SDS011;49136;47.416;19.402;2023-03-01T16:51:19;17.35;;;6.57;;
63050;SDS011;49136;47.416;19.402;2023-03-01T16:53:46;10.18;;;4.80;;
63050;SDS011;49136;47.416;19.402;2023-03-01T16:56:12;18.27;;;4.80;;
63050;SDS011;49136;47.416;19.402;2023-03-01T16:58:39;10.05;;;5.07;;
63050;SDS011;49136;47.416;19.402;2023-03-01T17:01:09;19.63;;;6.30;;
63050;SDS011;49136;47.416;19.402;2023-03-01T17:03:43;11.55;;;3.20;;
63050;SDS011;49136;47.416;19.402;2023-03-01T17:06:10;14.82;;;6.53;;